Time;durP1;ratioP1;P1;durP2;ratioP2;P2;SDS_P1;SDS_P2;PMS_P1;PMS_P2;Temp;Humidity;BMP_temperature;BMP_pressure;BME280_temperature;BME280_humidity;BME280_pressure;Samples;Min_cycle;Max_cycle;Signal;HPM_P1;HPM_P2
2022/05/05 00:02:02;;;;;;;;;;;16.20;45.60;;;;;;2291269;56;20092;-75
2022/05/05 00:04:28;;;;;;;;;;;16.10;45.50;;;;;;2291849;55;20072;-75
2022/05/05 00:06:54;;;;;;;;;;;16.10;45.60;;;;;;2291576;56;20072;-76
2022/05/05 00:09:21;;;;;;;;;;;16.10;45.70;;;;;;2291168;56;20076;-75
2022/05/05 00:16:52;;;;;;;;;;;16.00;45.70;;;;;;2292447;55;20137;-76
2022/05/05 00:19:18;;;;;;;;;;;15.90;45.80;;;;;;2288895;55;20061;-75
2022/05/05 00:21:45;;;;;;;;;;;15.90;45.90;;;;;;2294339;56;20084;-75
2022/05/05 00:24:12;;;;;;;;;;;15.80;45.90;;;;;;2352099;55;20157;-78
2022/05/05 00:26:38;;;;;;;;;;;15.80;46.10;;;;;;2291259;56;20124;-76
2022/05/05 00:29:05;;;;;;;;;;;15.80;46.20;;;;;;2422260;55;20125;-75
2022/05/05 00:31:31;;;;;;;;;;;15.80;46.30;;;;;;2290794;56;20084;-75
2022/05/05 00:33:58;;;;;;;;;;;15.80;46.30;;;;;;2293400;55;20073;-76
2022/05/05 00:36:24;;;;;;;;;;;15.80;46.40;;;;;;2307718;54;20089;-75
2022/05/05 00:38:50;;;;;;;;;;;15.80;46.50;;;;;;2306592;55;20132;-77
2022/05/05 00:41:17;;;;;;;;;;;15.80;46.50;;;;;;2297011;55;20053;-76
2022/05/05 00:43:43;;;;;;;;;;;15.80;46.60;;;;;;2473320;54;20293;-76
2022/05/05 00:46:09;;;;;;;;;;;15.80;46.60;;;;;;2296286;55;20125;-76
2022/05/05 00:48:38;;;;;;;;;;;15.80;46.60;;;;;;2283255;54;20124;-76
2022/05/05 00:51:04;;;;;;;;;;;15.90;46.80;;;;;;2292469;55;20128;-78
2022/05/05 00:53:31;;;;;;;;;;;15.80;46.70;;;;;;2293080;55;20088;-76
2022/05/05 00:55:59;;;;;;;;;;;15.80;46.80;;;;;;2292309;56;20507;-76
2022/05/05 00:58:25;;;;;;;;;;;15.90;46.90;;;;;;2292899;55;20147;-76
2022/05/05 01:00:51;;;;;;;;;;;15.90;46.90;;;;;;2306270;55;20114;-76
2022/05/05 01:03:18;;;;;;;;;;;15.90;46.90;;;;;;2277518;55;20061;-76
2022/05/05 01:05:44;;;;;;;;;;;15.90;46.90;;;;;;2285578;55;20144;-76
2022/05/05 01:08:10;;;;;;;;;;;15.90;46.90;;;;;;2317298;55;20769;-76
2022/05/05 01:10:38;;;;;;;;;;;15.90;46.90;;;;;;2269115;56;20080;-76
2022/05/05 01:13:05;;;;;;;;;;;15.90;47.60;;;;;;2291187;56;20101;-76
2022/05/05 01:15:32;;;;;;;;;;;15.90;47.00;;;;;;2302178;54;20382;-75
2022/05/05 01:17:58;;;;;;;;;;;16.00;47.10;;;;;;2291726;55;20120;-77
2022/05/05 01:20:24;;;;;;;;;;;15.90;47.10;;;;;;2408839;55;20460;-76
2022/05/05 01:22:51;;;;;;;;;;;16.00;47.20;;;;;;2291378;55;20104;-78
2022/05/05 01:28:14;;;;;;;;;;;15.90;47.20;;;;;;2291307;56;20073;-78
2022/05/05 01:30:45;;;;;;;;;;;16.00;47.30;;;;;;2294483;56;20129;-76
2022/05/05 01:33:12;;;;;;;;;;;16.00;47.30;;;;;;2280890;55;20169;-75
2022/05/05 01:35:39;;;;;;;;;;;16.00;47.30;;;;;;2318520;55;20112;-78
2022/05/05 01:38:08;;;;;;;;;;;16.00;47.40;;;;;;2291107;56;20212;-76
2022/05/05 01:40:37;;;;;;;;;;;16.00;47.40;;;;;;2331257;55;20151;-77
2022/05/05 01:43:06;;;;;;;;;;;16.00;47.40;;;;;;2291308;55;20113;-76
2022/05/05 01:45:32;;;;;;;;;;;16.00;47.40;;;;;;2310490;55;20648;-76
2022/05/05 01:47:59;;;;;;;;;;;16.00;47.40;;;;;;2499462;55;20068;-78
2022/05/05 01:50:25;;;;;;;;;;;16.10;47.50;;;;;;2295337;55;20125;-76
2022/05/05 01:52:52;;;;;;;;;;;16.00;47.50;;;;;;2282199;55;20606;-76
2022/05/05 01:55:19;;;;;;;;;;;16.10;47.50;;;;;;2326132;54;20084;-77
2022/05/05 01:57:47;;;;;;;;;;;16.10;47.50;;;;;;2289883;55;20072;-77
2022/05/05 02:00:14;;;;;;;;;;;16.10;47.60;;;;;;2317689;55;20063;-76
2022/05/05 02:02:42;;;;;;;;;;;16.10;47.60;;;;;;2391810;54;20125;-76
2022/05/05 02:05:08;;;;;;;;;;;16.00;47.50;;;;;;2451535;55;20185;-76
2022/05/05 02:07:35;;;;;;;;;;;16.00;47.60;;;;;;2504753;54;20138;-76
2022/05/05 02:10:02;;;;;;;;;;;16.10;47.70;;;;;;2281487;55;20168;-76
2022/05/05 02:12:38;;;;;;;;;;;16.10;47.80;;;;;;2351866;54;20701;-76
2022/05/05 02:15:06;;;;;;;;;;;16.10;47.80;;;;;;2289868;55;20085;-75
2022/05/05 02:17:34;;;;;;;;;;;16.10;47.90;;;;;;2433992;54;20515;-76
2022/05/05 02:20:00;;;;;;;;;;;16.10;47.90;;;;;;2306507;55;20677;-76
2022/05/05 02:22:27;;;;;;;;;;;16.10;47.90;;;;;;2292869;55;20383;-78
2022/05/05 02:24:53;;;;;;;;;;;16.10;47.90;;;;;;2291201;56;20073;-76
2022/05/05 02:27:20;;;;;;;;;;;16.10;47.90;;;;;;2351385;55;20361;-76
2022/05/05 02:29:46;;;;;;;;;;;16.10;48.00;;;;;;2288342;54;23610;-76
2022/05/05 02:32:23;;;;;;;;;;;16.10;48.00;;;;;;2291589;56;20646;-76
2022/05/05 02:34:49;;;;;;;;;;;16.10;48.10;;;;;;2343192;55;20076;-76
2022/05/05 02:40:00;;;;;;;;;;;16.20;48.20;;;;;;2376318;55;20349;-79
2022/05/05 02:42:26;;;;;;;;;;;16.20;48.80;;;;;;2293610;55;20117;-76
2022/05/05 02:44:52;;;;;;;;;;;16.20;48.30;;;;;;2278724;55;20081;-76
2022/05/05 02:47:19;;;;;;;;;;;16.20;48.30;;;;;;2291136;56;20587;-76
2022/05/05 02:49:46;;;;;;;;;;;16.20;48.30;;;;;;2291435;55;20129;-77
2022/05/05 02:52:13;;;;;;;;;;;16.20;48.40;;;;;;2354522;54;20073;-76
2022/05/05 02:54:50;;;;;;;;;;;16.20;48.40;;;;;;2364955;55;20109;-77
2022/05/05 02:57:17;;;;;;;;;;;16.30;48.50;;;;;;2290531;55;20084;-77
2022/05/05 02:59:43;;;;;;;;;;;16.30;48.50;;;;;;2407184;54;20418;-77
2022/05/05 03:02:09;;;;;;;;;;;16.30;48.60;;;;;;2290067;55;20110;-76
2022/05/05 03:04:44;;;;;;;;;;;16.30;48.50;;;;;;2342343;55;20405;-76
2022/05/05 03:07:11;;;;;;;;;;;16.30;48.60;;;;;;2318068;55;20124;-77
2022/05/05 03:09:40;;;;;;;;;;;16.30;48.60;;;;;;2289524;55;20113;-76
2022/05/05 03:12:07;;;;;;;;;;;16.40;48.70;;;;;;2302194;55;20539;-76
2022/05/05 03:14:33;;;;;;;;;;;16.40;48.70;;;;;;2291149;56;20330;-78
2022/05/05 03:17:00;;;;;;;;;;;16.40;48.70;;;;;;2304758;55;20084;-77
2022/05/05 03:19:27;;;;;;;;;;;16.40;48.70;;;;;;2367152;55;20107;-77
2022/05/05 03:21:53;;;;;;;;;;;16.40;48.70;;;;;;2318255;55;20081;-76
2022/05/05 03:24:19;;;;;;;;;;;16.40;48.70;;;;;;2289693;55;20120;-76
2022/05/05 03:26:45;;;;;;;;;;;16.40;48.70;;;;;;2290941;55;20124;-76
2022/05/05 03:29:12;;;;;;;;;;;16.50;48.80;;;;;;2291198;56;20125;-76
2022/05/05 03:31:39;;;;;;;;;;;16.40;48.70;;;;;;2292693;55;20060;-77
2022/05/05 03:34:05;;;;;;;;;;;16.40;48.70;;;;;;2288478;55;20440;-78
2022/05/05 03:36:31;;;;;;;;;;;16.50;48.80;;;;;;2290675;55;20141;-77
2022/05/05 03:38:57;;;;;;;;;;;16.50;48.80;;;;;;2372829;55;20476;-76
2022/05/05 03:41:24;;;;;;;;;;;16.50;48.90;;;;;;2290093;54;20080;-76
2022/05/05 03:43:52;;;;;;;;;;;16.50;48.90;;;;;;2352242;55;20128;-76
2022/05/05 03:46:18;;;;;;;;;;;16.50;48.90;;;;;;2385535;54;20085;-76
2022/05/05 03:48:44;;;;;;;;;;;16.50;49.60;;;;;;2314379;55;20073;-78
2022/05/05 03:51:11;;;;;;;;;;;16.50;49.00;;;;;;2290234;54;20146;-76
2022/05/05 03:53:37;;;;;;;;;;;16.50;49.10;;;;;;2288473;55;20108;-76
2022/05/05 03:56:04;;;;;;;;;;;16.50;49.00;;;;;;2280372;55;20128;-77
2022/05/05 03:58:30;;;;;;;;;;;16.50;49.00;;;;;;2469195;55;20603;-76
2022/05/05 04:00:57;;;;;;;;;;;16.50;49.00;;;;;;2290379;55;20085;-79
2022/05/05 04:03:32;;;;;;;;;;;16.50;49.00;;;;;;2296569;56;20128;-77
2022/05/05 04:06:01;;;;;;;;;;;16.50;49.10;;;;;;2319457;55;20133;-77
2022/05/05 04:08:27;;;;;;;;;;;16.50;49.20;;;;;;2288072;55;20128;-78
2022/05/05 04:10:54;;;;;;;;;;;16.50;49.20;;;;;;2291149;56;20076;-78
2022/05/05 04:13:20;;;;;;;;;;;16.50;49.20;;;;;;2289652;55;20120;-78
2022/05/05 04:15:46;;;;;;;;;;;16.50;49.30;;;;;;2290947;56;20141;-77
2022/05/05 04:18:13;;;;;;;;;;;16.50;49.30;;;;;;2299892;55;20116;-77
2022/05/05 04:20:40;;;;;;;;;;;16.50;49.40;;;;;;2317816;55;20476;-78
2022/05/05 04:23:06;;;;;;;;;;;16.50;49.40;;;;;;2294130;56;20416;-78
2022/05/05 04:25:48;;;;;;;;;;;16.50;49.40;;;;;;2299844;54;20084;-79
2022/05/05 04:28:15;;;;;;;;;;;16.50;49.50;;;;;;2290727;56;20136;-79
2022/05/05 04:30:41;;;;;;;;;;;16.50;49.60;;;;;;2309562;54;20080;-79
2022/05/05 04:33:08;;;;;;;;;;;16.40;49.50;;;;;;2321402;55;20370;-79
2022/05/05 04:35:37;;;;;;;;;;;16.50;49.70;;;;;;2284128;55;20549;-79
2022/05/05 04:38:03;;;;;;;;;;;16.50;49.70;;;;;;2289092;54;20083;-78
2022/05/05 04:40:29;;;;;;;;;;;16.50;49.80;;;;;;2290601;54;20300;-79
2022/05/05 04:42:56;;;;;;;;;;;16.50;49.80;;;;;;2331123;54;20061;-79
2022/05/05 04:45:24;;;;;;;;;;;16.50;49.90;;;;;;2279177;55;20100;-79
2022/05/05 04:47:50;;;;;;;;;;;16.50;50.00;;;;;;2349417;54;20332;-80
2022/05/05 04:50:17;;;;;;;;;;;16.50;50.00;;;;;;2283528;55;20480;-80
2022/05/05 04:52:44;;;;;;;;;;;16.50;50.00;;;;;;2277346;55;20088;-80
2022/05/05 04:55:10;;;;;;;;;;;16.50;50.10;;;;;;2405512;55;20305;-80
2022/05/05 04:57:38;;;;;;;;;;;16.60;50.20;;;;;;2341581;55;20125;-79
2022/05/05 05:00:05;;;;;;;;;;;16.60;50.30;;;;;;2321971;55;20081;-80
2022/05/05 05:02:31;;;;;;;;;;;16.50;50.20;;;;;;2290021;55;20109;-79
2022/05/05 05:04:58;;;;;;;;;;;16.60;50.30;;;;;;2441143;55;20113;-79
2022/05/05 05:07:25;;;;;;;;;;;16.60;50.40;;;;;;2292196;56;20076;-79
2022/05/05 05:09:52;;;;;;;;;;;16.60;50.40;;;;;;2310171;55;20117;-81
2022/05/05 05:12:18;;;;;;;;;;;16.60;50.40;;;;;;2313399;55;20073;-79
2022/05/05 05:14:45;;;;;;;;;;;16.60;50.50;;;;;;2335421;55;20084;-79
2022/05/05 05:17:11;;;;;;;;;;;16.60;50.50;;;;;;2333593;55;20133;-79
2022/05/05 05:19:37;;;;;;;;;;;16.70;50.60;;;;;;2293366;56;20120;-79
2022/05/05 05:22:05;;;;;;;;;;;16.60;50.50;;;;;;2293007;56;20584;-79
2022/05/05 05:24:32;;;;;;;;;;;16.70;50.60;;;;;;2291188;56;20828;-79
2022/05/05 05:26:58;;;;;;;;;;;16.60;50.60;;;;;;2289737;55;20133;-78
2022/05/05 05:29:25;;;;;;;;;;;16.70;50.70;;;;;;2303981;55;20589;-78
2022/05/05 05:31:52;;;;;;;;;;;16.70;50.60;;;;;;2355907;54;20060;-78
2022/05/05 05:34:19;;;;;;;;;;;16.70;50.60;;;;;;2297115;55;20153;-77
2022/05/05 05:36:45;;;;;;;;;;;16.70;50.60;;;;;;2327623;55;20123;-79
2022/05/05 05:39:11;;;;;;;;;;;16.70;50.60;;;;;;2433160;55;20049;-79
2022/05/05 05:41:37;;;;;;;;;;;16.70;50.60;;;;;;2344637;55;20124;-79
2022/05/05 05:44:04;;;;;;;;;;;16.70;50.60;;;;;;2345061;54;20120;-79
2022/05/05 05:46:31;;;;;;;;;;;16.70;50.70;;;;;;2298591;55;20314;-79
2022/05/05 05:48:57;;;;;;;;;;;16.70;50.70;;;;;;2296061;55;20076;-79
2022/05/05 05:51:26;;;;;;;;;;;16.70;50.80;;;;;;2318122;55;20473;-79
2022/05/05 05:53:54;;;;;;;;;;;16.70;50.80;;;;;;2285213;55;20065;-79
2022/05/05 05:56:24;;;;;;;;;;;16.70;50.80;;;;;;2287674;55;20199;-79
2022/05/05 05:58:50;;;;;;;;;;;16.70;50.80;;;;;;2367020;55;20077;-79
2022/05/05 06:01:16;;;;;;;;;;;16.80;50.90;;;;;;2334091;55;20057;-78
2022/05/05 06:03:54;;;;;;;;;;;16.70;50.80;;;;;;2292870;55;20060;-77
2022/05/05 06:06:21;;;;;;;;;;;16.70;50.70;;;;;;2283191;55;20085;-78
2022/05/05 06:08:47;;;;;;;;;;;16.70;50.60;;;;;;2366491;55;20065;-80
2022/05/05 06:11:14;;;;;;;;;;;16.70;50.60;;;;;;2292244;55;20180;-78
2022/05/05 06:13:42;;;;;;;;;;;16.70;50.60;;;;;;2292263;56;20120;-78
2022/05/05 06:16:10;;;;;;;;;;;16.70;50.60;;;;;;2297106;54;20105;-78
2022/05/05 06:18:36;;;;;;;;;;;16.70;50.60;;;;;;2292600;55;20136;-78
2022/05/05 06:21:02;;;;;;;;;;;16.60;50.60;;;;;;2434164;55;20117;-78
2022/05/05 06:23:29;;;;;;;;;;;16.60;50.60;;;;;;2308312;55;20128;-79
2022/05/05 06:25:55;;;;;;;;;;;16.60;50.70;;;;;;2293224;55;20090;-78
2022/05/05 06:28:22;;;;;;;;;;;16.60;50.60;;;;;;2289137;55;20129;-77
2022/05/05 06:30:49;;;;;;;;;;;16.60;50.70;;;;;;2293253;56;20140;-78
2022/05/05 06:33:15;;;;;;;;;;;16.50;50.60;;;;;;2292736;56;20129;-78
2022/05/05 06:35:41;;;;;;;;;;;16.50;50.80;;;;;;2294397;55;20145;-78
2022/05/05 06:38:07;;;;;;;;;;;16.50;51.00;;;;;;2289474;55;20125;-78
2022/05/05 06:40:36;;;;;;;;;;;16.50;51.10;;;;;;2304474;55;20120;-77
2022/05/05 06:43:15;;;;;;;;;;;16.50;51.20;;;;;;2292225;56;20383;-78
2022/05/05 06:45:41;;;;;;;;;;;16.50;51.30;;;;;;2292833;55;20080;-78
2022/05/05 06:48:08;;;;;;;;;;;16.50;51.30;;;;;;2292744;56;20117;-78
2022/05/05 06:50:35;;;;;;;;;;;16.50;51.30;;;;;;2292682;56;20325;-77
2022/05/05 06:53:02;;;;;;;;;;;16.50;51.30;;;;;;2314424;55;20105;-77
2022/05/05 06:55:28;;;;;;;;;;;16.50;51.20;;;;;;2294902;55;20617;-77
2022/05/05 06:57:54;;;;;;;;;;;16.50;51.20;;;;;;2287916;55;20176;-78
2022/05/05 07:00:21;;;;;;;;;;;16.50;51.30;;;;;;2352486;55;20121;-78
2022/05/05 07:02:48;;;;;;;;;;;16.40;51.40;;;;;;2284826;55;20545;-77
2022/05/05 07:05:23;;;;;;;;;;;16.40;51.30;;;;;;2298418;55;20065;-76
2022/05/05 07:07:50;;;;;;;;;;;16.40;51.30;;;;;;2334142;55;20065;-77
2022/05/05 07:13:02;;;;;;;;;;;16.50;51.50;;;;;;2323968;55;20068;-77
2022/05/05 07:15:28;;;;;;;;;;;16.50;51.50;;;;;;2292466;56;20088;-77
2022/05/05 07:17:55;;;;;;;;;;;16.40;51.40;;;;;;2296594;55;20306;-78
2022/05/05 07:20:23;;;;;;;;;;;16.40;51.40;;;;;;2288657;54;20463;-77
2022/05/05 07:22:51;;;;;;;;;;;16.50;51.50;;;;;;2388707;54;20128;-76
2022/05/05 07:25:19;;;;;;;;;;;16.50;51.50;;;;;;2352756;55;20076;-77
2022/05/05 07:27:45;;;;;;;;;;;16.50;51.50;;;;;;2297901;55;20201;-76
2022/05/05 07:30:12;;;;;;;;;;;16.50;51.50;;;;;;2347909;55;20322;-77
2022/05/05 07:32:38;;;;;;;;;;;16.50;51.40;;;;;;2294840;54;20113;-78
2022/05/05 07:35:05;;;;;;;;;;;16.50;51.30;;;;;;2282368;55;20077;-77
2022/05/05 07:37:32;;;;;;;;;;;16.50;51.30;;;;;;2292184;55;20085;-77
2022/05/05 07:39:58;;;;;;;;;;;16.50;51.30;;;;;;2391759;54;20276;-76
2022/05/05 07:42:25;;;;;;;;;;;16.40;51.30;;;;;;2293112;56;20085;-76
2022/05/05 07:44:51;;;;;;;;;;;16.40;51.40;;;;;;2305949;55;20128;-78
2022/05/05 07:47:19;;;;;;;;;;;16.50;51.40;;;;;;2335123;55;20060;-76
2022/05/05 07:49:45;;;;;;;;;;;16.50;51.60;;;;;;2297835;55;20096;-77
2022/05/05 07:52:11;;;;;;;;;;;16.50;51.60;;;;;;2354598;55;20204;-77
2022/05/05 07:54:44;;;;;;;;;;;16.50;51.60;;;;;;2292742;55;20048;-76
2022/05/05 07:57:14;;;;;;;;;;;16.50;51.70;;;;;;2362275;55;20073;-77
2022/05/05 07:59:40;;;;;;;;;;;16.50;51.70;;;;;;2294754;55;20088;-77
2022/05/05 08:02:09;;;;;;;;;;;16.60;51.80;;;;;;2382266;55;20116;-78
2022/05/05 08:04:37;;;;;;;;;;;16.60;51.90;;;;;;2292190;55;20116;-77
2022/05/05 08:07:03;;;;;;;;;;;16.60;52.50;;;;;;2495692;55;20104;-79
2022/05/05 08:09:30;;;;;;;;;;;16.70;52.00;;;;;;2293219;56;20145;-76
2022/05/05 08:12:11;;;;;;;;;;;16.70;52.00;;;;;;2355370;55;20182;-79
2022/05/05 08:14:38;;;;;;;;;;;16.70;52.00;;;;;;2385950;55;20188;-77
2022/05/05 08:17:04;;;;;;;;;;;16.80;52.10;;;;;;2303279;54;20061;-77
2022/05/05 08:19:36;;;;;;;;;;;16.80;52.10;;;;;;2297533;55;20113;-77
2022/05/05 08:22:04;;;;;;;;;;;16.80;52.20;;;;;;2293720;56;20053;-77
2022/05/05 08:30:00;;;;;;;;;;;17.00;52.30;;;;;;2293209;56;20128;-78
2022/05/05 08:32:27;;;;;;;;;;;17.00;52.30;;;;;;2354117;55;20073;-77
2022/05/05 08:34:53;;;;;;;;;;;17.10;52.30;;;;;;2292793;55;20093;-77
2022/05/05 08:37:19;;;;;;;;;;;17.10;52.10;;;;;;2319128;55;20076;-77
2022/05/05 08:39:46;;;;;;;;;;;17.10;52.20;;;;;;2311125;55;20705;-80
2022/05/05 08:42:12;;;;;;;;;;;17.20;52.30;;;;;;2355295;55;20061;-77
2022/05/05 08:44:38;;;;;;;;;;;17.20;52.20;;;;;;2293320;55;20097;-78
2022/05/05 08:47:05;;;;;;;;;;;17.30;52.30;;;;;;2372328;54;20073;-77
2022/05/05 08:49:32;;;;;;;;;;;17.30;52.30;;;;;;2321763;54;20085;-78
2022/05/05 08:51:59;;;;;;;;;;;17.30;52.20;;;;;;2287916;55;20412;-77
2022/05/05 08:54:25;;;;;;;;;;;17.40;52.30;;;;;;2294993;55;20293;-77
2022/05/05 08:56:52;;;;;;;;;;;17.40;52.20;;;;;;2294126;55;20666;-77
2022/05/05 08:59:18;;;;;;;;;;;17.40;52.00;;;;;;2525126;54;20109;-77
2022/05/05 09:01:45;;;;;;;;;;;17.40;52.00;;;;;;2292101;55;20184;-77
2022/05/05 09:04:11;;;;;;;;;;;17.50;52.00;;;;;;2335017;55;20073;-78
2022/05/05 09:06:43;;;;;;;;;;;17.50;52.00;;;;;;2305894;55;20129;-77
2022/05/05 09:09:25;;;;;;;;;;;17.40;51.80;;;;;;2289791;54;20100;-78
2022/05/05 09:12:04;;;;;;;;;;;17.40;51.80;;;;;;2294926;55;20198;-78
2022/05/05 09:14:39;;;;;;;;;;;17.40;51.70;;;;;;2334820;54;20133;-77
2022/05/05 09:17:06;;;;;;;;;;;17.40;51.60;;;;;;2291022;55;20069;-79
2022/05/05 09:19:40;;;;;;;;;;;17.40;51.60;;;;;;2328330;55;20084;-79
2022/05/05 09:22:08;;;;;;;;;;;17.40;51.60;;;;;;2351526;54;20109;-78
2022/05/05 09:24:40;;;;;;;;;;;17.40;51.70;;;;;;2368451;55;20066;-76
2022/05/05 09:27:26;;;;;;;;;;;17.40;51.70;;;;;;2358027;54;20791;-79
2022/05/05 09:30:53;;;;;;;;;;;17.40;51.80;;;;;;2295898;55;20049;-79
2022/05/05 09:36:51;;;;;;;;;;;17.40;51.80;;;;;;2292879;56;20073;-78
2022/05/05 09:39:17;;;;;;;;;;;17.40;51.90;;;;;;2296316;55;20121;-77
2022/05/05 09:41:44;;;;;;;;;;;17.40;51.70;;;;;;2294512;55;20097;-79
2022/05/05 09:44:17;;;;;;;;;;;17.50;51.80;;;;;;2279341;55;20086;-80
2022/05/05 09:46:44;;;;;;;;;;;17.50;51.80;;;;;;2298422;55;20076;-77
2022/05/05 09:49:12;;;;;;;;;;;17.50;51.70;;;;;;2341969;54;20084;-76
2022/05/05 09:51:39;;;;;;;;;;;17.50;51.90;;;;;;2331934;55;20589;-78
2022/05/05 09:59:40;;;;;;;;;;;17.60;51.90;;;;;;2295680;55;20121;-78
2022/05/05 10:05:55;;;;;;;;;;;17.60;52.00;;;;;;2296269;55;20073;-77
2022/05/05 10:08:35;;;;;;;;;;;17.70;52.10;;;;;;2368758;55;20105;-77
2022/05/05 10:11:08;;;;;;;;;;;17.70;52.10;;;;;;2292864;56;20597;-78
2022/05/05 10:13:47;;;;;;;;;;;17.80;52.10;;;;;;2308479;55;20077;-77
2022/05/05 10:16:16;;;;;;;;;;;17.80;52.20;;;;;;2293191;56;20068;-77
2022/05/05 10:18:42;;;;;;;;;;;17.90;52.30;;;;;;2296538;55;20088;-79
2022/05/05 10:21:16;;;;;;;;;;;17.90;52.20;;;;;;2294181;54;20354;-78
2022/05/05 10:23:56;;;;;;;;;;;18.00;52.20;;;;;;2330710;55;20146;-77
2022/05/05 10:26:25;;;;;;;;;;;18.00;52.10;;;;;;2281405;55;20077;-75
2022/05/05 10:28:52;;;;;;;;;;;18.10;52.10;;;;;;2293353;55;20061;-78
2022/05/05 10:33:11;;;;;;;;;;;18.10;52.00;;;;;;2317313;55;20128;-77
2022/05/05 10:35:45;;;;;;;;;;;18.10;52.00;;;;;;2282898;55;20200;-80
2022/05/05 10:38:30;;;;;;;;;;;18.20;52.10;;;;;;2294620;55;20361;-77
2022/05/05 10:40:57;;;;;;;;;;;18.20;52.10;;;;;;2293015;56;20077;-78
2022/05/05 10:43:32;;;;;;;;;;;18.30;52.10;;;;;;2292988;56;20183;-76
2022/05/05 10:45:59;;;;;;;;;;;18.30;52.00;;;;;;2455201;54;20420;-77
2022/05/05 10:48:38;;;;;;;;;;;18.30;52.10;;;;;;2319975;55;1868335;-79
2022/05/05 10:51:06;;;;;;;;;;;18.40;52.00;;;;;;2292648;56;20473;-77
2022/05/05 10:53:36;;;;;;;;;;;18.40;51.90;;;;;;2292400;54;20097;-78
2022/05/05 10:56:03;;;;;;;;;;;18.40;51.90;;;;;;2325709;55;20112;-79
2022/05/05 10:58:48;;;;;;;;;;;18.40;51.80;;;;;;2293134;55;20065;-75
2022/05/05 11:01:14;;;;;;;;;;;18.40;51.90;;;;;;2296620;55;20097;-77
2022/05/05 11:04:03;;;;;;;;;;;18.40;51.80;;;;;;2294475;54;20148;-77
2022/05/05 11:06:30;;;;;;;;;;;18.40;51.80;;;;;;2372795;55;20140;-77
2022/05/05 11:08:56;;;;;;;;;;;18.40;51.90;;;;;;2302845;55;20068;-79
2022/05/05 11:11:42;;;;;;;;;;;18.50;52.00;;;;;;2278989;55;20141;-77
2022/05/05 11:21:32;;;;;;;;;;;18.40;51.90;;;;;;2343311;54;20072;-77
2022/05/05 11:23:58;;;;;;;;;;;18.50;52.00;;;;;;2319849;54;20065;-76
2022/05/05 11:26:24;;;;;;;;;;;18.60;52.00;;;;;;2303690;55;20124;-76
2022/05/05 11:28:50;;;;;;;;;;;18.60;52.10;;;;;;2345611;55;20293;-75
2022/05/05 11:31:20;;;;;;;;;;;18.60;52.10;;;;;;2296433;55;20125;-78
2022/05/05 11:33:47;;;;;;;;;;;18.70;52.00;;;;;;2297566;54;20173;-77
2022/05/05 11:36:14;;;;;;;;;;;18.70;51.90;;;;;;2344157;55;20076;-78
2022/05/05 11:38:42;;;;;;;;;;;18.70;51.90;;;;;;2341477;54;20137;-78
2022/05/05 11:41:08;;;;;;;;;;;18.70;51.80;;;;;;2273346;54;20086;-79
2022/05/05 11:46:19;;;;;;;;;;;18.70;51.80;;;;;;2290527;55;20116;-77
2022/05/05 11:48:52;;;;;;;;;;;18.80;51.80;;;;;;2291167;56;20081;-77
2022/05/05 11:51:22;;;;;;;;;;;18.80;51.70;;;;;;2291037;56;20155;-76
2022/05/05 11:53:48;;;;;;;;;;;18.70;51.60;;;;;;2298763;55;20135;-76
2022/05/05 11:56:15;;;;;;;;;;;18.70;51.50;;;;;;2293928;55;20064;-77
2022/05/05 12:07:57;;;;;;;;;;;18.70;51.60;;;;;;2310388;55;20596;-79
2022/05/05 12:10:32;;;;;;;;;;;18.80;51.90;;;;;;2326077;55;20476;-76
2022/05/05 12:12:59;;;;;;;;;;;18.70;51.80;;;;;;2293671;55;20096;-74
2022/05/05 12:15:26;;;;;;;;;;;18.80;51.80;;;;;;2290057;55;20149;-75
2022/05/05 12:17:57;;;;;;;;;;;18.80;51.80;;;;;;2289355;54;20383;-75
2022/05/05 12:20:24;;;;;;;;;;;18.90;51.90;;;;;;2362610;55;20064;-75
2022/05/05 12:22:56;;;;;;;;;;;18.90;52.00;;;;;;2303386;55;20113;-77
2022/05/05 12:25:24;;;;;;;;;;;18.90;52.00;;;;;;2311865;55;20111;-75
2022/05/05 12:28:28;;;;;;;;;;;18.90;51.90;;;;;;2307161;55;20069;-79
2022/05/05 12:30:55;;;;;;;;;;;19.00;51.90;;;;;;2330398;55;20097;-78
2022/05/05 12:33:34;;;;;;;;;;;19.00;51.80;;;;;;2291641;55;20080;-75
2022/05/05 12:36:10;;;;;;;;;;;19.00;51.70;;;;;;2300600;55;20141;-76
2022/05/05 12:38:37;;;;;;;;;;;19.00;51.60;;;;;;2294784;55;20228;-76
2022/05/05 12:41:07;;;;;;;;;;;19.00;51.50;;;;;;2290283;55;20370;-76
2022/05/05 12:43:34;;;;;;;;;;;18.90;51.40;;;;;;2295016;55;20073;-77
2022/05/05 12:46:03;;;;;;;;;;;18.90;51.40;;;;;;2344264;55;20066;-77
2022/05/05 12:48:29;;;;;;;;;;;18.90;51.40;;;;;;2297757;55;20077;-76
2022/05/05 12:50:56;;;;;;;;;;;18.90;51.40;;;;;;2298531;55;20129;-77
2022/05/05 13:01:49;;;;;;;;;;;18.80;51.50;;;;;;2271663;55;20180;-75
2022/05/05 13:04:17;;;;;;;;;;;18.80;51.50;;;;;;2331083;55;20721;-76
2022/05/05 13:06:45;;;;;;;;;;;18.80;51.30;;;;;;2289578;55;20069;-75
2022/05/05 13:09:11;;;;;;;;;;;18.70;51.20;;;;;;2368198;55;20180;-76
2022/05/05 13:11:46;;;;;;;;;;;18.70;51.20;;;;;;2291172;56;20144;-76
2022/05/05 13:14:13;;;;;;;;;;;18.70;51.20;;;;;;2291334;56;20114;-75
2022/05/05 13:16:43;;;;;;;;;;;18.70;51.30;;;;;;2295081;55;20093;-77
2022/05/05 13:19:10;;;;;;;;;;;18.70;51.30;;;;;;2294343;56;20064;-76
2022/05/05 13:21:39;;;;;;;;;;;18.70;51.30;;;;;;2295480;55;20212;-75
2022/05/05 13:24:06;;;;;;;;;;;18.70;51.40;;;;;;2288211;55;20072;-77
2022/05/05 13:26:32;;;;;;;;;;;18.70;51.40;;;;;;2295339;55;20192;-75
2022/05/05 13:29:00;;;;;;;;;;;18.70;51.40;;;;;;2345724;55;20085;-76
2022/05/05 13:31:30;;;;;;;;;;;18.80;51.50;;;;;;2291366;55;20201;-76
2022/05/05 13:33:56;;;;;;;;;;;18.80;51.40;;;;;;2288301;55;20083;-77
2022/05/05 13:36:22;;;;;;;;;;;18.80;51.40;;;;;;2324945;55;20080;-77
2022/05/05 13:38:51;;;;;;;;;;;18.80;51.30;;;;;;2374910;55;20140;-75
2022/05/05 13:41:35;;;;;;;;;;;18.80;51.30;;;;;;2291560;55;20080;-76
2022/05/05 13:44:04;;;;;;;;;;;18.80;51.30;;;;;;2309917;55;20076;-78
2022/05/05 13:46:30;;;;;;;;;;;18.90;51.40;;;;;;2276568;54;20350;-78
2022/05/05 13:48:57;;;;;;;;;;;18.80;51.30;;;;;;2281133;55;20076;-78
2022/05/05 13:51:23;;;;;;;;;;;18.90;51.30;;;;;;2313974;55;20192;-77
2022/05/05 13:53:50;;;;;;;;;;;18.90;51.30;;;;;;2310015;55;20081;-77
2022/05/05 13:56:16;;;;;;;;;;;18.90;51.20;;;;;;2291627;56;20072;-76
2022/05/05 13:58:42;;;;;;;;;;;18.90;51.20;;;;;;2291452;55;20958;-75
2022/05/05 14:01:09;;;;;;;;;;;18.90;51.20;;;;;;2297151;55;20129;-77
2022/05/05 14:03:37;;;;;;;;;;;18.90;51.20;;;;;;2301721;55;20061;-75
2022/05/05 14:06:03;;;;;;;;;;;18.90;51.20;;;;;;2329778;55;20084;-76
2022/05/05 14:13:59;;;;;;;;;;;19.00;51.20;;;;;;2366126;55;20073;-77
2022/05/05 14:16:28;;;;;;;;;;;18.90;51.10;;;;;;2286201;55;20444;-77
2022/05/05 14:18:54;;;;;;;;;;;19.00;51.10;;;;;;2498201;54;20065;-75
2022/05/05 14:21:21;;;;;;;;;;;19.00;51.10;;;;;;2425505;55;20116;-75
2022/05/05 14:23:48;;;;;;;;;;;19.00;51.10;;;;;;2343492;55;20116;-78
2022/05/05 14:26:14;;;;;;;;;;;19.00;51.10;;;;;;2296613;54;20061;-78
2022/05/05 14:28:40;;;;;;;;;;;19.00;51.10;;;;;;2319522;55;20136;-77
2022/05/05 14:31:06;;;;;;;;;;;19.00;51.10;;;;;;2361324;54;20065;-76
2022/05/05 14:33:33;;;;;;;;;;;19.00;51.10;;;;;;2416715;55;20129;-77
2022/05/05 14:35:59;;;;;;;;;;;19.00;51.00;;;;;;2301890;54;20125;-77
2022/05/05 14:38:25;;;;;;;;;;;19.00;50.90;;;;;;2327356;55;20092;-78
2022/05/05 14:40:52;;;;;;;;;;;19.00;50.90;;;;;;2291893;55;20137;-76
2022/05/05 14:43:18;;;;;;;;;;;19.00;50.80;;;;;;2291208;55;20131;-79
2022/05/05 14:45:45;;;;;;;;;;;19.00;50.80;;;;;;2303564;54;20621;-77
2022/05/05 14:48:11;;;;;;;;;;;18.90;50.70;;;;;;2363744;55;20563;-78
2022/05/05 14:50:37;;;;;;;;;;;18.90;50.60;;;;;;2317019;54;20077;-79
2022/05/05 14:53:04;;;;;;;;;;;18.90;50.70;;;;;;2291353;56;20084;-75
2022/05/05 14:55:30;;;;;;;;;;;18.90;50.70;;;;;;2290095;55;20158;-75
2022/05/05 14:57:59;;;;;;;;;;;18.80;50.60;;;;;;2291285;56;20365;-76
2022/05/05 15:00:26;;;;;;;;;;;18.90;50.80;;;;;;2526467;54;20076;-76
2022/05/05 15:02:52;;;;;;;;;;;18.90;50.80;;;;;;2343252;54;20136;-75
2022/05/05 15:05:18;;;;;;;;;;;18.80;50.70;;;;;;2293100;54;20120;-76
2022/05/05 15:07:45;;;;;;;;;;;18.80;50.70;;;;;;2288646;55;20128;-74
2022/05/05 15:10:11;;;;;;;;;;;18.80;50.70;;;;;;2292447;55;20125;-77
2022/05/05 15:12:38;;;;;;;;;;;18.80;50.70;;;;;;2285742;54;20076;-75
2022/05/05 15:15:04;;;;;;;;;;;18.80;50.70;;;;;;2359547;54;20113;-77
2022/05/05 15:17:30;;;;;;;;;;;18.70;50.70;;;;;;2336945;55;20132;-77
2022/05/05 15:19:57;;;;;;;;;;;18.70;50.80;;;;;;2438217;54;20159;-76
2022/05/05 15:22:23;;;;;;;;;;;18.70;50.90;;;;;;2291252;55;20120;-76
2022/05/05 15:25:05;;;;;;;;;;;18.70;51.00;;;;;;2312905;54;20136;-76
2022/05/05 15:27:32;;;;;;;;;;;18.60;50.90;;;;;;2327370;55;20078;-77
2022/05/05 15:29:59;;;;;;;;;;;18.60;51.00;;;;;;2295648;55;20228;-78